sensor_id;sensor_type;location;lat;lon;timestamp;temperature;humidity
45066;DHT22;30830;53.704;10.004;2023-03-23T00:01:24;9.80;99.90
45066;DHT22;30830;53.704;10.004;2023-03-23T00:03:53;9.80;99.90
45066;DHT22;30830;53.704;10.004;2023-03-23T00:06:19;9.80;99.90
45066;DHT22;30830;53.704;10.004;2023-03-23T00:08:48;9.80;99.90
45066;DHT22;30830;53.704;10.004;2023-03-23T00:11:17;9.80;99.90
45066;DHT22;30830;53.704;10.004;2023-03-23T00:13:45;9.80;99.90
45066;DHT22;30830;53.704;10.004;2023-03-23T00:16:12;9.80;99.90
45066;DHT22;30830;53.704;10.004;2023-03-23T00:18:45;9.80;99.90
45066;DHT22;30830;53.704;10.004;2023-03-23T00:21:11;9.80;99.90
45066;DHT22;30830;53.704;10.004;2023-03-23T00:23:36;9.80;99.90
45066;DHT22;30830;53.704;10.004;2023-03-23T00:26:03;9.80;99.90
45066;DHT22;30830;53.704;10.004;2023-03-23T00:28:29;9.80;99.90
45066;DHT22;30830;53.704;10.004;2023-03-23T00:31:03;9.80;99.90
45066;DHT22;30830;53.704;10.004;2023-03-23T00:33:32;9.80;99.90
45066;DHT22;30830;53.704;10.004;2023-03-23T00:36:12;9.80;99.90
45066;DHT22;30830;53.704;10.004;2023-03-23T00:38:40;9.80;99.90
45066;DHT22;30830;53.704;10.004;2023-03-23T00:41:07;9.80;99.90
45066;DHT22;30830;53.704;10.004;2023-03-23T00:43:33;9.80;99.90
45066;DHT22;30830;53.704;10.004;2023-03-23T00:46:03;9.80;99.90
45066;DHT22;30830;53.704;10.004;2023-03-23T00:48:34;9.80;99.90
45066;DHT22;30830;53.704;10.004;2023-03-23T00:51:01;9.80;99.90
45066;DHT22;30830;53.704;10.004;2023-03-23T00:53:32;9.80;99.90
45066;DHT22;30830;53.704;10.004;2023-03-23T00:55:57;9.80;99.90
45066;DHT22;30830;53.704;10.004;2023-03-23T00:58:23;9.80;99.90
45066;DHT22;30830;53.704;10.004;2023-03-23T01:00:48;9.80;99.90
45066;DHT22;30830;53.704;10.004;2023-03-23T01:03:14;9.80;99.90
45066;DHT22;30830;53.704;10.004;2023-03-23T01:05:44;9.80;99.90
45066;DHT22;30830;53.704;10.004;2023-03-23T01:08:12;9.80;99.90
45066;DHT22;30830;53.704;10.004;2023-03-23T01:10:38;9.80;99.90
45066;DHT22;30830;53.704;10.004;2023-03-23T01:13:04;9.80;99.90
45066;DHT22;30830;53.704;10.004;2023-03-23T01:15:30;9.80;99.90
45066;DHT22;30830;53.704;10.004;2023-03-23T01:17:56;9.80;99.90
45066;DHT22;30830;53.704;10.004;2023-03-23T01:20:24;9.80;99.90
45066;DHT22;30830;53.704;10.004;2023-03-23T01:22:50;9.80;99.90
45066;DHT22;30830;53.704;10.004;2023-03-23T01:25:15;9.80;99.90
45066;DHT22;30830;53.704;10.004;2023-03-23T01:27:41;9.80;99.90
45066;DHT22;30830;53.704;10.004;2023-03-23T01:30:11;9.80;99.90
45066;DHT22;30830;53.704;10.004;2023-03-23T01:32:37;9.80;99.90
45066;DHT22;30830;53.704;10.004;2023-03-23T01:35:03;9.80;99.90
45066;DHT22;30830;53.704;10.004;2023-03-23T01:37:30;9.80;99.90
45066;DHT22;30830;53.704;10.004;2023-03-23T01:39:56;9.80;99.90
45066;DHT22;30830;53.704;10.004;2023-03-23T01:42:24;9.80;99.90
45066;DHT22;30830;53.704;10.004;2023-03-23T01:47:16;9.80;99.90
45066;DHT22;30830;53.704;10.004;2023-03-23T01:49:46;9.80;99.90
45066;DHT22;30830;53.704;10.004;2023-03-23T01:52:22;9.80;99.90
45066;DHT22;30830;53.704;10.004;2023-03-23T01:54:50;9.80;99.90
45066;DHT22;30830;53.704;10.004;2023-03-23T01:57:18;9.90;99.90
45066;DHT22;30830;53.704;10.004;2023-03-23T01:59:49;9.90;99.90
45066;DHT22;30830;53.704;10.004;2023-03-23T02:02:16;9.90;99.90
45066;DHT22;30830;53.704;10.004;2023-03-23T02:04:43;9.90;99.90
45066;DHT22;30830;53.704;10.004;2023-03-23T02:07:12;9.90;99.90
45066;DHT22;30830;53.704;10.004;2023-03-23T02:09:39;9.80;99.90
45066;DHT22;30830;53.704;10.004;2023-03-23T02:12:05;9.90;99.90
45066;DHT22;30830;53.704;10.004;2023-03-23T02:14:31;9.80;99.90
45066;DHT22;30830;53.704;10.004;2023-03-23T02:17:06;9.80;99.90
45066;DHT22;30830;53.704;10.004;2023-03-23T02:22:44;9.90;99.90
45066;DHT22;30830;53.704;10.004;2023-03-23T02:28:15;9.90;99.90
45066;DHT22;30830;53.704;10.004;2023-03-23T02:33:46;9.90;99.90
45066;DHT22;30830;53.704;10.004;2023-03-23T02:41:28;9.90;99.90
45066;DHT22;30830;53.704;10.004;2023-03-23T02:43:56;9.90;99.90
45066;DHT22;30830;53.704;10.004;2023-03-23T02:46:23;9.90;99.90
45066;DHT22;30830;53.704;10.004;2023-03-23T02:48:50;9.90;99.90
45066;DHT22;30830;53.704;10.004;2023-03-23T02:51:18;9.90;99.90
45066;DHT22;30830;53.704;10.004;2023-03-23T02:53:46;9.90;99.90
45066;DHT22;30830;53.704;10.004;2023-03-23T02:56:13;9.90;99.90
45066;DHT22;30830;53.704;10.004;2023-03-23T02:58:40;9.90;99.90
45066;DHT22;30830;53.704;10.004;2023-03-23T03:04:05;10.00;99.90
45066;DHT22;30830;53.704;10.004;2023-03-23T03:06:57;10.00;99.90
45066;DHT22;30830;53.704;10.004;2023-03-23T03:10:08;10.00;99.90
45066;DHT22;30830;53.704;10.004;2023-03-23T03:12:55;10.00;99.90
45066;DHT22;30830;53.704;10.004;2023-03-23T03:15:53;10.00;99.90
45066;DHT22;30830;53.704;10.004;2023-03-23T03:21:18;10.00;99.90
45066;DHT22;30830;53.704;10.004;2023-03-23T03:23:53;10.00;99.90
45066;DHT22;30830;53.704;10.004;2023-03-23T03:26:21;10.00;99.90
45066;DHT22;30830;53.704;10.004;2023-03-23T03:28:52;9.90;99.90
45066;DHT22;30830;53.704;10.004;2023-03-23T03:31:30;9.90;99.90
45066;DHT22;30830;53.704;10.004;2023-03-23T03:33:57;10.00;99.90
45066;DHT22;30830;53.704;10.004;2023-03-23T03:36:28;9.90;99.90
45066;DHT22;30830;53.704;10.004;2023-03-23T03:39:02;9.90;99.90
45066;DHT22;30830;53.704;10.004;2023-03-23T03:41:33;9.90;99.90
45066;DHT22;30830;53.704;10.004;2023-03-23T03:43:58;9.90;99.90
45066;DHT22;30830;53.704;10.004;2023-03-23T03:46:24;9.90;99.90
45066;DHT22;30830;53.704;10.004;2023-03-23T03:48:52;9.90;99.90
45066;DHT22;30830;53.704;10.004;2023-03-23T03:51:18;9.90;99.90
45066;DHT22;30830;53.704;10.004;2023-03-23T03:53:43;9.90;99.90
45066;DHT22;30830;53.704;10.004;2023-03-23T03:56:09;9.90;99.90
45066;DHT22;30830;53.704;10.004;2023-03-23T03:58:35;9.90;99.90
45066;DHT22;30830;53.704;10.004;2023-03-23T04:01:03;9.90;99.90
45066;DHT22;30830;53.704;10.004;2023-03-23T04:03:28;10.00;99.90
45066;DHT22;30830;53.704;10.004;2023-03-23T04:05:55;10.00;99.90
45066;DHT22;30830;53.704;10.004;2023-03-23T04:08:24;10.00;99.90
45066;DHT22;30830;53.704;10.004;2023-03-23T04:10:52;10.00;99.90
45066;DHT22;30830;53.704;10.004;2023-03-23T04:13:19;10.00;99.90
45066;DHT22;30830;53.704;10.004;2023-03-23T04:15:45;10.00;99.90
45066;DHT22;30830;53.704;10.004;2023-03-23T04:18:11;10.00;99.90
45066;DHT22;30830;53.704;10.004;2023-03-23T04:20:38;10.00;99.90
45066;DHT22;30830;53.704;10.004;2023-03-23T04:23:04;10.00;99.90
45066;DHT22;30830;53.704;10.004;2023-03-23T04:25:30;10.00;99.90
45066;DHT22;30830;53.704;10.004;2023-03-23T04:27:58;10.00;99.90
45066;DHT22;30830;53.704;10.004;2023-03-23T04:30:28;10.00;99.90
45066;DHT22;30830;53.704;10.004;2023-03-23T04:32:55;10.00;99.90
45066;DHT22;30830;53.704;10.004;2023-03-23T04:35:23;10.00;99.90
45066;DHT22;30830;53.704;10.004;2023-03-23T04:37:51;10.00;99.90
45066;DHT22;30830;53.704;10.004;2023-03-23T04:40:17;10.00;99.90
45066;DHT22;30830;53.704;10.004;2023-03-23T04:42:44;10.00;99.90
45066;DHT22;30830;53.704;10.004;2023-03-23T04:45:15;10.00;99.90
45066;DHT22;30830;53.704;10.004;2023-03-23T04:47:41;10.10;99.90
45066;DHT22;30830;53.704;10.004;2023-03-23T04:50:09;10.10;99.90
45066;DHT22;30830;53.704;10.004;2023-03-23T04:52:36;10.10;99.90
45066;DHT22;30830;53.704;10.004;2023-03-23T04:55:04;10.10;99.90
45066;DHT22;30830;53.704;10.004;2023-03-23T04:57:31;10.10;99.90
45066;DHT22;30830;53.704;10.004;2023-03-23T04:59:57;10.00;99.90
45066;DHT22;30830;53.704;10.004;2023-03-23T05:02:22;10.00;99.90
45066;DHT22;30830;53.704;10.004;2023-03-23T05:04:48;10.00;99.90
45066;DHT22;30830;53.704;10.004;2023-03-23T05:07:14;10.00;99.90
45066;DHT22;30830;53.704;10.004;2023-03-23T05:09:40;10.00;99.90
45066;DHT22;30830;53.704;10.004;2023-03-23T05:12:08;10.00;99.90
45066;DHT22;30830;53.704;10.004;2023-03-23T05:14:34;10.00;99.90
45066;DHT22;30830;53.704;10.004;2023-03-23T05:17:00;10.00;99.90
45066;DHT22;30830;53.704;10.004;2023-03-23T05:19:26;10.00;99.90
45066;DHT22;30830;53.704;10.004;2023-03-23T05:21:53;10.00;99.90
45066;DHT22;30830;53.704;10.004;2023-03-23T05:24:19;10.00;99.90
45066;DHT22;30830;53.704;10.004;2023-03-23T05:26:45;10.00;99.90
45066;DHT22;30830;53.704;10.004;2023-03-23T05:29:14;10.00;99.90
45066;DHT22;30830;53.704;10.004;2023-03-23T05:31:39;10.00;99.90
45066;DHT22;30830;53.704;10.004;2023-03-23T05:34:05;10.00;99.90
45066;DHT22;30830;53.704;10.004;2023-03-23T05:36:31;10.10;99.90
45066;DHT22;30830;53.704;10.004;2023-03-23T05:38:56;10.10;99.90
45066;DHT22;30830;53.704;10.004;2023-03-23T05:41:25;10.10;99.90
45066;DHT22;30830;53.704;10.004;2023-03-23T05:43:51;10.10;99.90
45066;DHT22;30830;53.704;10.004;2023-03-23T05:46:16;10.10;99.90
45066;DHT22;30830;53.704;10.004;2023-03-23T05:48:43;10.10;99.90
45066;DHT22;30830;53.704;10.004;2023-03-23T05:51:08;10.10;99.90
45066;DHT22;30830;53.704;10.004;2023-03-23T05:53:35;10.10;99.90
45066;DHT22;30830;53.704;10.004;2023-03-23T05:56:01;10.10;99.90
45066;DHT22;30830;53.704;10.004;2023-03-23T05:58:27;10.10;99.90
45066;DHT22;30830;53.704;10.004;2023-03-23T06:00:53;10.10;99.90
45066;DHT22;30830;53.704;10.004;2023-03-23T06:03:18;10.10;99.90
45066;DHT22;30830;53.704;10.004;2023-03-23T06:05:45;10.10;99.90
45066;DHT22;30830;53.704;10.004;2023-03-23T06:08:10;10.10;99.90
45066;DHT22;30830;53.704;10.004;2023-03-23T06:10:37;10.10;99.90
45066;DHT22;30830;53.704;10.004;2023-03-23T06:13:03;10.10;99.90
45066;DHT22;30830;53.704;10.004;2023-03-23T06:15:29;10.00;99.90
45066;DHT22;30830;53.704;10.004;2023-03-23T06:18:03;10.00;99.90
45066;DHT22;30830;53.704;10.004;2023-03-23T06:20:29;10.10;99.90
45066;DHT22;30830;53.704;10.004;2023-03-23T06:22:55;10.00;99.90
45066;DHT22;30830;53.704;10.004;2023-03-23T06:25:22;10.00;99.90
45066;DHT22;30830;53.704;10.004;2023-03-23T06:27:48;10.00;99.90
45066;DHT22;30830;53.704;10.004;2023-03-23T06:30:14;10.00;99.90
45066;DHT22;30830;53.704;10.004;2023-03-23T06:32:40;10.00;99.90
45066;DHT22;30830;53.704;10.004;2023-03-23T06:35:08;10.00;99.90
45066;DHT22;30830;53.704;10.004;2023-03-23T06:37:35;10.00;99.90
45066;DHT22;30830;53.704;10.004;2023-03-23T06:40:02;10.00;99.90
45066;DHT22;30830;53.704;10.004;2023-03-23T06:42:29;10.10;99.90
45066;DHT22;30830;53.704;10.004;2023-03-23T06:44:55;10.10;99.90
45066;DHT22;30830;53.704;10.004;2023-03-23T06:47:23;10.20;99.90
45066;DHT22;30830;53.704;10.004;2023-03-23T06:49:49;10.20;99.90
45066;DHT22;30830;53.704;10.004;2023-03-23T06:52:14;10.30;99.90
45066;DHT22;30830;53.704;10.004;2023-03-23T06:54:40;10.30;99.90
45066;DHT22;30830;53.704;10.004;2023-03-23T06:57:06;10.40;99.90
45066;DHT22;30830;53.704;10.004;2023-03-23T06:59:32;10.40;99.90
45066;DHT22;30830;53.704;10.004;2023-03-23T07:01:58;10.50;99.90
45066;DHT22;30830;53.704;10.004;2023-03-23T07:04:23;10.50;99.90
45066;DHT22;30830;53.704;10.004;2023-03-23T07:06:49;10.50;99.90
45066;DHT22;30830;53.704;10.004;2023-03-23T07:09:15;10.60;99.90
45066;DHT22;30830;53.704;10.004;2023-03-23T07:11:40;10.60;99.90
45066;DHT22;30830;53.704;10.004;2023-03-23T07:14:06;10.70;99.90
45066;DHT22;30830;53.704;10.004;2023-03-23T07:16:32;10.70;99.90
45066;DHT22;30830;53.704;10.004;2023-03-23T07:18:59;10.80;99.90
45066;DHT22;30830;53.704;10.004;2023-03-23T07:21:25;10.80;99.90
45066;DHT22;30830;53.704;10.004;2023-03-23T07:23:51;10.90;99.90
45066;DHT22;30830;53.704;10.004;2023-03-23T07:26:16;10.90;99.90
45066;DHT22;30830;53.704;10.004;2023-03-23T07:28:43;10.90;99.90
45066;DHT22;30830;53.704;10.004;2023-03-23T07:31:08;11.00;99.90
45066;DHT22;30830;53.704;10.004;2023-03-23T07:33:34;11.00;99.90
45066;DHT22;30830;53.704;10.004;2023-03-23T07:36:01;11.00;99.90
45066;DHT22;30830;53.704;10.004;2023-03-23T07:38:28;11.00;99.90
45066;DHT22;30830;53.704;10.004;2023-03-23T07:40:54;11.00;99.90
45066;DHT22;30830;53.704;10.004;2023-03-23T07:43:19;11.00;99.90
45066;DHT22;30830;53.704;10.004;2023-03-23T07:45:45;10.90;99.90
45066;DHT22;30830;53.704;10.004;2023-03-23T07:48:11;10.90;99.90
45066;DHT22;30830;53.704;10.004;2023-03-23T07:50:38;10.90;99.90
45066;DHT22;30830;53.704;10.004;2023-03-23T07:53:03;10.90;99.90
45066;DHT22;30830;53.704;10.004;2023-03-23T07:55:29;10.80;99.90
45066;DHT22;30830;53.704;10.004;2023-03-23T07:57:55;10.70;99.90
45066;DHT22;30830;53.704;10.004;2023-03-23T08:00:22;10.70;99.90
45066;DHT22;30830;53.704;10.004;2023-03-23T08:02:51;10.70;99.90
45066;DHT22;30830;53.704;10.004;2023-03-23T08:05:17;10.60;99.90
45066;DHT22;30830;53.704;10.004;2023-03-23T08:07:44;10.60;99.90
45066;DHT22;30830;53.704;10.004;2023-03-23T08:10:11;10.50;99.90
45066;DHT22;30830;53.704;10.004;2023-03-23T08:12:39;10.40;99.90
45066;DHT22;30830;53.704;10.004;2023-03-23T08:15:06;10.40;99.90
45066;DHT22;30830;53.704;10.004;2023-03-23T08:17:33;10.30;99.90
45066;DHT22;30830;53.704;10.004;2023-03-23T08:20:00;10.20;99.90
45066;DHT22;30830;53.704;10.004;2023-03-23T08:22:26;10.10;99.90
45066;DHT22;30830;53.704;10.004;2023-03-23T08:24:51;10.10;99.90
45066;DHT22;30830;53.704;10.004;2023-03-23T08:27:18;10.10;99.90
45066;DHT22;30830;53.704;10.004;2023-03-23T08:29:47;10.00;99.90
45066;DHT22;30830;53.704;10.004;2023-03-23T08:32:13;10.00;99.90
45066;DHT22;30830;53.704;10.004;2023-03-23T08:34:40;10.00;99.90
45066;DHT22;30830;53.704;10.004;2023-03-23T08:37:07;10.00;99.90
45066;DHT22;30830;53.704;10.004;2023-03-23T08:39:33;10.00;99.90
45066;DHT22;30830;53.704;10.004;2023-03-23T08:41:59;10.00;99.90
45066;DHT22;30830;53.704;10.004;2023-03-23T08:44:24;10.00;99.90
45066;DHT22;30830;53.704;10.004;2023-03-23T08:46:50;10.00;99.90
45066;DHT22;30830;53.704;10.004;2023-03-23T08:49:23;10.00;99.90
45066;DHT22;30830;53.704;10.004;2023-03-23T08:51:49;10.10;99.90
45066;DHT22;30830;53.704;10.004;2023-03-23T08:54:15;10.10;99.90
45066;DHT22;30830;53.704;10.004;2023-03-23T08:56:41;10.20;99.90
45066;DHT22;30830;53.704;10.004;2023-03-23T08:59:07;10.20;99.90
45066;DHT22;30830;53.704;10.004;2023-03-23T09:01:32;10.30;99.90
45066;DHT22;30830;53.704;10.004;2023-03-23T09:03:58;10.40;99.90
45066;DHT22;30830;53.704;10.004;2023-03-23T09:06:25;10.50;99.90
45066;DHT22;30830;53.704;10.004;2023-03-23T09:08:51;10.50;99.90
45066;DHT22;30830;53.704;10.004;2023-03-23T09:11:16;10.60;99.90
45066;DHT22;30830;53.704;10.004;2023-03-23T09:13:42;10.60;99.90
45066;DHT22;30830;53.704;10.004;2023-03-23T09:16:08;10.60;99.90
45066;DHT22;30830;53.704;10.004;2023-03-23T09:18:34;10.70;99.90
45066;DHT22;30830;53.704;10.004;2023-03-23T09:21:01;10.70;99.90
45066;DHT22;30830;53.704;10.004;2023-03-23T09:23:27;10.70;99.90
45066;DHT22;30830;53.704;10.004;2023-03-23T09:25:52;10.70;99.90
45066;DHT22;30830;53.704;10.004;2023-03-23T09:28:18;11.00;99.90
45066;DHT22;30830;53.704;10.004;2023-03-23T09:30:45;11.10;99.90
45066;DHT22;30830;53.704;10.004;2023-03-23T09:33:12;11.20;99.90
45066;DHT22;30830;53.704;10.004;2023-03-23T09:35:38;11.20;99.90
45066;DHT22;30830;53.704;10.004;2023-03-23T09:38:05;11.20;99.90
45066;DHT22;30830;53.704;10.004;2023-03-23T09:40:46;11.20;99.90
45066;DHT22;30830;53.704;10.004;2023-03-23T09:43:36;11.30;99.90
45066;DHT22;30830;53.704;10.004;2023-03-23T09:46:24;11.50;99.90
45066;DHT22;30830;53.704;10.004;2023-03-23T09:48:55;11.80;99.90
45066;DHT22;30830;53.704;10.004;2023-03-23T09:54:18;12.10;99.90
45066;DHT22;30830;53.704;10.004;2023-03-23T09:56:46;12.20;99.90
45066;DHT22;30830;53.704;10.004;2023-03-23T10:02:01;12.60;99.90
45066;DHT22;30830;53.704;10.004;2023-03-23T10:07:16;12.90;99.90
45066;DHT22;30830;53.704;10.004;2023-03-23T10:09:44;13.00;99.90
45066;DHT22;30830;53.704;10.004;2023-03-23T10:12:34;13.10;99.90
45066;DHT22;30830;53.704;10.004;2023-03-23T10:15:15;13.20;99.90
45066;DHT22;30830;53.704;10.004;2023-03-23T10:17:51;13.20;99.90
45066;DHT22;30830;53.704;10.004;2023-03-23T10:28:39;13.30;99.90
45066;DHT22;30830;53.704;10.004;2023-03-23T10:31:11;13.50;99.90
45066;DHT22;30830;53.704;10.004;2023-03-23T10:33:44;13.60;99.90
45066;DHT22;30830;53.704;10.004;2023-03-23T10:36:24;13.70;99.90
45066;DHT22;30830;53.704;10.004;2023-03-23T10:41:26;13.60;99.90
45066;DHT22;30830;53.704;10.004;2023-03-23T10:43:52;13.50;99.90
45066;DHT22;30830;53.704;10.004;2023-03-23T10:48:48;13.40;99.90
45066;DHT22;30830;53.704;10.004;2023-03-23T10:51:18;13.40;99.90
45066;DHT22;30830;53.704;10.004;2023-03-23T10:53:50;13.30;99.90
45066;DHT22;30830;53.704;10.004;2023-03-23T10:56:25;13.20;99.90
45066;DHT22;30830;53.704;10.004;2023-03-23T10:58:51;13.20;99.90
45066;DHT22;30830;53.704;10.004;2023-03-23T11:01:31;13.10;99.90
45066;DHT22;30830;53.704;10.004;2023-03-23T11:03:58;13.00;99.90
45066;DHT22;30830;53.704;10.004;2023-03-23T11:06:33;13.00;99.90
45066;DHT22;30830;53.704;10.004;2023-03-23T11:09:12;13.00;99.90
45066;DHT22;30830;53.704;10.004;2023-03-23T11:11:40;13.00;99.90
45066;DHT22;30830;53.704;10.004;2023-03-23T11:14:28;13.00;99.90
45066;DHT22;30830;53.704;10.004;2023-03-23T11:16:59;13.00;99.90
45066;DHT22;30830;53.704;10.004;2023-03-23T11:19:34;13.00;99.90
45066;DHT22;30830;53.704;10.004;2023-03-23T11:24:33;13.00;99.90
45066;DHT22;30830;53.704;10.004;2023-03-23T11:26:59;12.90;99.90
45066;DHT22;30830;53.704;10.004;2023-03-23T11:29:27;12.90;99.90
45066;DHT22;30830;53.704;10.004;2023-03-23T11:32:06;12.90;99.90
45066;DHT22;30830;53.704;10.004;2023-03-23T11:34:46;12.90;99.90
45066;DHT22;30830;53.704;10.004;2023-03-23T11:37:32;12.80;99.90
45066;DHT22;30830;53.704;10.004;2023-03-23T11:40:01;12.80;99.90
45066;DHT22;30830;53.704;10.004;2023-03-23T11:43:00;12.80;99.90
45066;DHT22;30830;53.704;10.004;2023-03-23T11:50:31;13.30;99.90
45066;DHT22;30830;53.704;10.004;2023-03-23T11:53:25;13.30;99.90
45066;DHT22;30830;53.704;10.004;2023-03-23T11:55:55;13.30;99.90
45066;DHT22;30830;53.704;10.004;2023-03-23T11:58:23;13.40;99.90
45066;DHT22;30830;53.704;10.004;2023-03-23T12:00:50;13.50;99.90
45066;DHT22;30830;53.704;10.004;2023-03-23T12:09:30;13.40;99.90
45066;DHT22;30830;53.704;10.004;2023-03-23T12:12:16;13.40;99.90
45066;DHT22;30830;53.704;10.004;2023-03-23T12:14:53;13.30;99.90
45066;DHT22;30830;53.704;10.004;2023-03-23T12:17:45;13.20;99.90
45066;DHT22;30830;53.704;10.004;2023-03-23T12:25:54;13.20;99.90
45066;DHT22;30830;53.704;10.004;2023-03-23T12:31:45;13.20;99.90
45066;DHT22;30830;53.704;10.004;2023-03-23T12:36:51;13.10;99.90
45066;DHT22;30830;53.704;10.004;2023-03-23T12:39:57;13.10;99.90
45066;DHT22;30830;53.704;10.004;2023-03-23T12:42:41;13.10;99.90
45066;DHT22;30830;53.704;10.004;2023-03-23T12:45:49;13.20;99.90
45066;DHT22;30830;53.704;10.004;2023-03-23T12:48:13;13.30;99.90
45066;DHT22;30830;53.704;10.004;2023-03-23T12:50:43;13.40;99.90
45066;DHT22;30830;53.704;10.004;2023-03-23T12:53:21;13.40;99.90
45066;DHT22;30830;53.704;10.004;2023-03-23T12:56:04;13.40;99.90
45066;DHT22;30830;53.704;10.004;2023-03-23T12:58:38;13.40;99.90
45066;DHT22;30830;53.704;10.004;2023-03-23T13:01:18;13.40;99.90
45066;DHT22;30830;53.704;10.004;2023-03-23T13:03:59;13.40;99.90
45066;DHT22;30830;53.704;10.004;2023-03-23T13:06:34;13.50;99.90
45066;DHT22;30830;53.704;10.004;2023-03-23T13:09:22;13.50;99.90
45066;DHT22;30830;53.704;10.004;2023-03-23T13:11:50;13.40;99.90
45066;DHT22;30830;53.704;10.004;2023-03-23T13:17:22;13.20;99.90
45066;DHT22;30830;53.704;10.004;2023-03-23T13:22:38;13.20;99.90
45066;DHT22;30830;53.704;10.004;2023-03-23T13:25:19;13.30;99.90
45066;DHT22;30830;53.704;10.004;2023-03-23T13:27:59;13.30;99.90
45066;DHT22;30830;53.704;10.004;2023-03-23T13:30:25;13.40;99.90
45066;DHT22;30830;53.704;10.004;2023-03-23T13:33:02;13.50;99.90
45066;DHT22;30830;53.704;10.004;2023-03-23T13:35:35;13.40;99.90
45066;DHT22;30830;53.704;10.004;2023-03-23T13:38:33;13.40;99.90
45066;DHT22;30830;53.704;10.004;2023-03-23T13:40:57;13.30;99.90
45066;DHT22;30830;53.704;10.004;2023-03-23T13:43:32;13.20;99.90
45066;DHT22;30830;53.704;10.004;2023-03-23T13:48:45;12.40;99.90
45066;DHT22;30830;53.704;10.004;2023-03-23T13:54:14;11.40;99.90
45066;DHT22;30830;53.704;10.004;2023-03-23T13:59:16;10.90;99.90
45066;DHT22;30830;53.704;10.004;2023-03-23T14:02:20;10.80;99.90
45066;DHT22;30830;53.704;10.004;2023-03-23T14:04:42;10.60;99.90
45066;DHT22;30830;53.704;10.004;2023-03-23T14:07:12;10.40;99.90
45066;DHT22;30830;53.704;10.004;2023-03-23T14:09:42;10.40;99.90
45066;DHT22;30830;53.704;10.004;2023-03-23T14:12:18;10.30;99.90
45066;DHT22;30830;53.704;10.004;2023-03-23T14:14:49;10.30;99.90
45066;DHT22;30830;53.704;10.004;2023-03-23T14:17:23;10.30;99.90
45066;DHT22;30830;53.704;10.004;2023-03-23T14:19:54;10.40;99.90
45066;DHT22;30830;53.704;10.004;2023-03-23T14:22:24;10.40;99.90
45066;DHT22;30830;53.704;10.004;2023-03-23T14:24:52;10.50;99.90
45066;DHT22;30830;53.704;10.004;2023-03-23T14:27:21;10.60;99.90
45066;DHT22;30830;53.704;10.004;2023-03-23T14:29:58;10.80;99.90
45066;DHT22;30830;53.704;10.004;2023-03-23T14:32:24;10.90;99.90
45066;DHT22;30830;53.704;10.004;2023-03-23T14:34:52;11.00;99.90
45066;DHT22;30830;53.704;10.004;2023-03-23T14:37:19;11.10;99.90
45066;DHT22;30830;53.704;10.004;2023-03-23T14:39:48;11.20;99.90
45066;DHT22;30830;53.704;10.004;2023-03-23T14:42:16;11.20;99.90
45066;DHT22;30830;53.704;10.004;2023-03-23T14:44:46;11.30;99.90
45066;DHT22;30830;53.704;10.004;2023-03-23T14:47:27;11.20;99.90
45066;DHT22;30830;53.704;10.004;2023-03-23T14:49:55;11.20;99.90
45066;DHT22;30830;53.704;10.004;2023-03-23T14:52:23;11.20;99.90
45066;DHT22;30830;53.704;10.004;2023-03-23T14:54:50;11.30;99.90
45066;DHT22;30830;53.704;10.004;2023-03-23T14:59:52;11.30;99.90
45066;DHT22;30830;53.704;10.004;2023-03-23T15:02:23;11.40;99.90
45066;DHT22;30830;53.704;10.004;2023-03-23T15:04:54;11.40;99.90
45066;DHT22;30830;53.704;10.004;2023-03-23T15:07:25;11.40;99.90
45066;DHT22;30830;53.704;10.004;2023-03-23T15:09:51;11.40;99.90
45066;DHT22;30830;53.704;10.004;2023-03-23T15:12:21;11.50;99.90
45066;DHT22;30830;53.704;10.004;2023-03-23T15:14:50;11.60;99.90
45066;DHT22;30830;53.704;10.004;2023-03-23T15:17:24;11.50;99.90
45066;DHT22;30830;53.704;10.004;2023-03-23T15:19:52;11.50;99.90
45066;DHT22;30830;53.704;10.004;2023-03-23T15:22:29;11.50;99.90
45066;DHT22;30830;53.704;10.004;2023-03-23T15:25:10;11.40;99.90
45066;DHT22;30830;53.704;10.004;2023-03-23T15:27:42;11.40;99.90
45066;DHT22;30830;53.704;10.004;2023-03-23T15:32:41;11.30;99.90
45066;DHT22;30830;53.704;10.004;2023-03-23T15:35:22;11.30;99.90
45066;DHT22;30830;53.704;10.004;2023-03-23T15:37:52;11.30;99.90
45066;DHT22;30830;53.704;10.004;2023-03-23T15:40:21;11.40;99.90
45066;DHT22;30830;53.704;10.004;2023-03-23T15:42:48;11.40;99.90
45066;DHT22;30830;53.704;10.004;2023-03-23T15:52:53;11.40;99.90
45066;DHT22;30830;53.704;10.004;2023-03-23T15:55:22;11.30;99.90
45066;DHT22;30830;53.704;10.004;2023-03-23T15:57:48;11.30;99.90
45066;DHT22;30830;53.704;10.004;2023-03-23T16:00:16;11.20;99.90
45066;DHT22;30830;53.704;10.004;2023-03-23T16:02:42;11.20;99.90
45066;DHT22;30830;53.704;10.004;2023-03-23T16:05:11;11.10;99.90
45066;DHT22;30830;53.704;10.004;2023-03-23T16:07:37;11.10;99.90
45066;DHT22;30830;53.704;10.004;2023-03-23T16:10:04;11.10;99.90
45066;DHT22;30830;53.704;10.004;2023-03-23T16:12:30;11.10;99.90
45066;DHT22;30830;53.704;10.004;2023-03-23T16:14:56;11.10;99.90
45066;DHT22;30830;53.704;10.004;2023-03-23T16:17:21;11.00;99.90
45066;DHT22;30830;53.704;10.004;2023-03-23T16:19:47;11.00;99.90
45066;DHT22;30830;53.704;10.004;2023-03-23T16:22:12;11.00;99.90
45066;DHT22;30830;53.704;10.004;2023-03-23T16:24:38;11.00;99.90
45066;DHT22;30830;53.704;10.004;2023-03-23T16:27:04;11.00;99.90
45066;DHT22;30830;53.704;10.004;2023-03-23T16:29:30;11.00;99.90
45066;DHT22;30830;53.704;10.004;2023-03-23T16:31:56;11.00;99.90
45066;DHT22;30830;53.704;10.004;2023-03-23T16:34:22;10.90;99.90
45066;DHT22;30830;53.704;10.004;2023-03-23T16:36:47;10.80;99.90
45066;DHT22;30830;53.704;10.004;2023-03-23T16:39:13;10.70;99.90
45066;DHT22;30830;53.704;10.004;2023-03-23T16:41:43;10.70;99.90
45066;DHT22;30830;53.704;10.004;2023-03-23T16:44:09;10.60;99.90
45066;DHT22;30830;53.704;10.004;2023-03-23T16:46:34;10.60;99.90
45066;DHT22;30830;53.704;10.004;2023-03-23T16:49:00;10.50;99.90
45066;DHT22;30830;53.704;10.004;2023-03-23T16:51:26;10.40;99.90
45066;DHT22;30830;53.704;10.004;2023-03-23T16:53:51;10.40;99.90
45066;DHT22;30830;53.704;10.004;2023-03-23T16:56:17;10.40;99.90
45066;DHT22;30830;53.704;10.004;2023-03-23T16:58:42;10.30;99.90
45066;DHT22;30830;53.704;10.004;2023-03-23T17:01:08;10.30;99.90
45066;DHT22;30830;53.704;10.004;2023-03-23T17:03:34;10.20;99.90
45066;DHT22;30830;53.704;10.004;2023-03-23T17:06:00;10.20;99.90
45066;DHT22;30830;53.704;10.004;2023-03-23T17:08:26;10.10;99.90
45066;DHT22;30830;53.704;10.004;2023-03-23T17:10:52;10.10;99.90